Pantego, Texas
Current Conditions -  °F | °C
As of 1:53 PM on Friday 19 Dec 2014 (Local Time) from KGKY Reporting Station
Overcast Overcast  
Wind Chill: 50°   Ceiling: 800
Heat Index: 50°   Visibility: 7mi
Dew Point: 44°   Wind: 9mph
Humidity: 80%   Direction: 350°N
Pressure: 30.15"   Gusts: NA
Location:  32.6916°N, 97.1334°W
Report Text: KGKY 191953Z 35008KT 7SM OVC008 10/07 A3015 RMK AO2 SLP207 T01000067
Loading
Personal Weather Stations






























Interactive Weather Map New forecast layout! Learn more

10-Day Weather Forecast

Advertisements
Track Severe Weather on mobile